Flight Track Log - Related Links

Times and Time Zones

All times are in EDT time to prevent confusion due to time zone crossing. See the UCA5000 flight status page for this flight to view local times or setup timezone preferences in your user account.

Time Position Orientation Groundspeed Altitude Reporting Facility
EDT Latitude Longitude Course Direction KTS MPH feet Rate Location/Type
Wed 06:00:14 PM 40.6500 -74.1667 246° West 152 175 1,700  Level New York TRACON
Wed 06:01:14 PM 40.6333 -74.2167 246° West 185 213 2,400 950 Climbing New York TRACON
Wed 06:02:14 PM 40.6833 -74.2500 333° Northwest 211 243 3,600 1,429 Climbing New York TRACON
Wed 06:03:20 PM 40.7333 -74.2833 333° Northwest 177 204 5,400 1,600 Climbing New York TRACON
Wed 06:04:14 PM 40.7833 -74.3000 346° North 177 204 6,800 1,526 Climbing New York TRACON
Wed 06:05:14 PM 40.8333 -74.3167 346° North 175 201 8,300 1,056 Climbing New York TRACON
Wed 06:06:19 PM 40.8833 -74.3500 333° Northwest 196 226 9,000 336 Climbing New York TRACON
Wed 06:07:19 PM 40.9333 -74.3667 346° North 229 264 9,000  Level New York TRACON
Wed 06:08:20 PM 41.0000 -74.4000 339° North 237 273 9,000  Level New York TRACON
Wed 06:09:20 PM 41.0667 -74.4333 339° North 241 277 9,000  Level New York TRACON
Wed 06:10:14 PM 41.1167 -74.4667 333° Northwest 243 280 9,000  Level New York TRACON
Wed 06:11:20 PM 41.2000 -74.4833 351° North 243 280 9,000  Level New York TRACON
Wed 06:13:00 PM 41.2933 -74.4700 North  Level FlightAware Approximate
Wed 06:20:00 PM 41.5507 -74.8695 305° West  Level FlightAware Approximate
Wed 06:21:00 PM 41.5956 -74.9244 328° Northwest  Level FlightAware Approximate
Wed 06:21:40 PM 41.6767 -75.1367 307° West 250 288 9,000  Level New York Center
Wed 06:22:00 PM 41.6241 -74.9968 298° West  Level FlightAware Approximate
Wed 06:22:41 PM 41.7114 -75.2056 304° West 283 326 8,900  Level New York Center
Wed 06:23:00 PM 41.6525 -75.0693 298° West  Level FlightAware Approximate
Wed 06:23:41 PM 41.7442 -75.2747 302° West 265 305 8,900  Level New York Center
Wed 06:24:00 PM 41.6809 -75.1418 298° West  Level FlightAware Approximate
Wed 06:24:39 PM 41.7808 -75.3522 302° West 260 299 9,000  Level New York Center
Wed 06:25:00 PM 41.7093 -75.2144 298° West  Level FlightAware Approximate
Wed 06:25:39 PM 41.8233 -75.4386 303° West 254 292 9,000  Level New York Center
Wed 06:26:00 PM 41.7439 -75.2823 307° West  Level FlightAware Approximate
Wed 06:26:40 PM 41.8600 -75.5136 303° West 249 287 8,900  Level New York Center
Wed 06:27:40 PM 41.8964 -75.5914 302° West 249 287 8,900  Level New York Center
Wed 06:28:40 PM 41.9289 -75.6606 302° West 249 287 8,900  Level New York Center
Wed 06:29:41 PM 41.9692 -75.7444 303° West 244 281 8,900  Level New York Center
Wed 06:30:39 PM 42.0017 -75.8111 303° West 244 281 8,900  Level New York Center
Wed 06:31:40 PM 42.0397 -75.8978 301° West 244 281 8,900  Level New York Center
Wed 06:32:41 PM 42.0781 -75.9733 304° West 244 281 8,900  Level New York Center
Wed 06:33:39 PM 42.1142 -76.0517 302° West 244 281 8,900  Level New York Center
Wed 06:34:40 PM 42.1503 -76.1244 304° West 244 281 8,900 -34 Level New York Center
Wed 06:36:36 PM 42.2883 -76.1256 360° North 257 296 8,800  Descending Boston Center
Wed 06:37:36 PM 42.3617 -76.1158 North 259 298 8,900 50 Climbing Boston Center
Wed 06:38:37 PM 42.4328 -76.1086 North 259 298 8,900  Level Boston Center
Wed 06:39:37 PM 42.5019 -76.0986 North 254 292 8,900  Level Boston Center
Wed 06:40:38 PM 42.5667 -76.0939 North 230 265 8,900 -246 Level Boston Center
Wed 06:41:39 PM 42.6406 -76.0644 16° North 264 304 8,400 -843 Descending Boston Center
Wed 06:42:39 PM 42.7119 -76.0489 North 257 296 7,200 -1,339 Descending Boston Center
Wed 06:43:40 PM 42.7817 -76.0219 16° North 275 316 5,700 -1,475 Descending Boston Center
Wed 06:44:41 PM 42.8572 -76.0036 10° North 269 310 4,200 -1,091 Descending Boston Center
Wed 06:45:41 PM 42.9289 -75.9822 12° North 261 300 3,500 -397 Descending Boston Center
Wed 06:46:42 PM 42.9939 -75.9689 North 252 290 3,400 -246 Descending Boston Center
Wed 06:47:43 PM 43.0669 -75.9644 North 243 280 3,000 -496 Descending Boston Center
Wed 06:48:43 PM 43.1072 -76.0125 319° Northwest 173 199 2,400 -992 Descending Boston Center
Wed 06:49:44 PM 43.1097 -76.0636 274° West 111 128 1,000 -1,377 Descending Boston Center
Wed 06:51:00 PM 43.1000 -76.1000 287° West  Level FlightAware Approximate

Login

Don't have an account? Register now (free) for customized features, flight alerts, and more!